createdAt,value
2018-11-26T00:00:35.381Z,4.00
2018-11-26T00:03:09.120Z,4.10
2018-11-26T00:05:39.067Z,4.10
2018-11-26T00:08:10.259Z,4.10
2018-11-26T00:10:50.009Z,4.10
2018-11-26T00:13:19.398Z,4.10
2018-11-26T00:15:48.682Z,4.10
2018-11-26T00:18:17.690Z,4.10
2018-11-26T00:20:46.808Z,4.10
2018-11-26T00:23:16.142Z,4.10
2018-11-26T00:25:45.406Z,4.10
2018-11-26T00:28:14.738Z,4.10
2018-11-26T00:30:43.690Z,4.10
2018-11-26T00:33:13.021Z,4.20
2018-11-26T00:35:42.258Z,4.20
2018-11-26T00:38:11.327Z,4.20
2018-11-26T00:40:40.684Z,4.20
2018-11-26T00:43:09.498Z,4.30
2018-11-26T00:45:38.609Z,4.30
2018-11-26T00:48:07.380Z,4.40
2018-11-26T00:50:36.634Z,4.30
2018-11-26T00:53:06.546Z,4.30
2018-11-26T00:55:36.079Z,4.30
2018-11-26T00:58:05.697Z,4.30
2018-11-26T01:00:34.653Z,4.30
2018-11-26T01:03:04.034Z,4.40
2018-11-26T01:05:38.297Z,4.40
2018-11-26T01:08:07.272Z,4.40
2018-11-26T01:10:36.145Z,4.40
2018-11-26T01:13:05.403Z,4.40
2018-11-26T01:15:34.465Z,4.40
2018-11-26T01:18:03.590Z,4.60
2018-11-26T01:20:32.782Z,4.60
2018-11-26T01:23:01.736Z,4.50
2018-11-26T01:25:30.592Z,4.50
2018-11-26T01:27:59.913Z,4.50
2018-11-26T01:30:29.135Z,4.50
2018-11-26T01:32:58.109Z,4.60
2018-11-26T01:35:27.127Z,4.60
2018-11-26T01:37:56.142Z,4.70
2018-11-26T01:40:30.567Z,4.70
2018-11-26T01:42:59.929Z,4.80
2018-11-26T01:45:29.436Z,4.70
2018-11-26T01:48:03.644Z,4.80
2018-11-26T01:50:37.608Z,4.80
2018-11-26T01:53:07.481Z,4.80
2018-11-26T01:55:36.957Z,4.80
2018-11-26T01:58:06.465Z,4.80
2018-11-26T02:00:36.360Z,4.80
2018-11-26T02:03:05.925Z,4.80
2018-11-26T02:05:34.920Z,4.70
2018-11-26T02:08:04.715Z,4.80
2018-11-26T02:10:33.613Z,4.80
2018-11-26T02:13:03.131Z,4.80
2018-11-26T02:15:38.585Z,4.70
2018-11-26T02:18:08.517Z,4.80
2018-11-26T02:20:37.782Z,4.80
2018-11-26T02:23:07.320Z,4.90
2018-11-26T02:25:36.444Z,4.90
2018-11-26T02:28:05.626Z,4.90
2018-11-26T02:30:34.690Z,4.90
2018-11-26T02:33:03.961Z,4.80
2018-11-26T02:35:33.549Z,4.90
2018-11-26T02:38:02.682Z,4.90
2018-11-26T02:40:33.079Z,4.90
2018-11-26T02:43:02.301Z,4.90
2018-11-26T02:45:31.401Z,4.90
2018-11-26T02:48:00.859Z,5.10
2018-11-26T02:50:30.157Z,5.10
2018-11-26T02:52:59.334Z,5.10
2018-11-26T02:55:28.563Z,5.10
2018-11-26T02:57:57.772Z,5.10
2018-11-26T03:00:26.956Z,5.00
2018-11-26T03:02:55.923Z,5.10
2018-11-26T03:05:27.901Z,5.10
2018-11-26T03:07:56.975Z,5.10
2018-11-26T03:10:26.039Z,5.10
2018-11-26T03:12:54.923Z,5.10
2018-11-26T03:15:23.761Z,5.20
2018-11-26T03:17:52.620Z,5.20
2018-11-26T03:20:21.618Z,5.20
2018-11-26T03:22:51.177Z,5.20
2018-11-26T03:25:20.387Z,5.20
2018-11-26T03:27:49.612Z,5.30
2018-11-26T03:30:20.135Z,5.20
2018-11-26T03:32:49.334Z,5.10
2018-11-26T03:35:18.557Z,5.10
2018-11-26T03:37:47.591Z,5.20
2018-11-26T03:40:16.812Z,5.10
2018-11-26T03:42:45.703Z,5.20
2018-11-26T03:45:17.995Z,5.20
2018-11-26T03:47:47.190Z,5.10
2018-11-26T03:50:16.415Z,5.10
2018-11-26T03:52:45.817Z,5.20
2018-11-26T03:55:15.776Z,5.10
2018-11-26T03:57:44.580Z,5.10
2018-11-26T04:00:14.592Z,5.10
2018-11-26T04:02:43.769Z,5.20
2018-11-26T04:05:12.862Z,5.10
2018-11-26T04:07:42.111Z,5.00
2018-11-26T04:10:13.665Z,5.00
2018-11-26T04:12:42.834Z,5.00
2018-11-26T04:15:14.756Z,5.10
2018-11-26T04:17:43.873Z,5.00
2018-11-26T04:20:12.726Z,5.00
2018-11-26T04:22:42.061Z,5.10
2018-11-26T04:25:11.259Z,5.10
2018-11-26T04:27:40.528Z,5.10
2018-11-26T04:30:11.858Z,5.10
2018-11-26T04:32:41.189Z,5.20
2018-11-26T04:35:10.740Z,5.20
2018-11-26T04:37:39.833Z,5.20
2018-11-26T04:40:09.897Z,5.20
2018-11-26T04:42:39.374Z,5.30
2018-11-26T04:45:09.977Z,5.30
2018-11-26T04:47:39.302Z,5.30
2018-11-26T04:50:13.058Z,5.40
2018-11-26T04:52:42.612Z,5.40
2018-11-26T04:55:13.171Z,5.30
2018-11-26T04:57:42.916Z,5.30
2018-11-26T05:00:14.486Z,5.40
2018-11-26T05:02:43.873Z,5.30
2018-11-26T05:05:13.744Z,5.30
2018-11-26T05:07:43.154Z,5.30
2018-11-26T05:10:13.346Z,5.30
2018-11-26T05:12:42.273Z,5.30
2018-11-26T05:15:12.327Z,5.30
2018-11-26T05:17:41.349Z,5.30
2018-11-26T05:20:11.552Z,5.30
2018-11-26T05:22:40.725Z,5.20
2018-11-26T05:25:10.624Z,5.20
2018-11-26T05:27:39.489Z,5.20
2018-11-26T05:30:11.696Z,5.20
2018-11-26T05:32:41.123Z,5.20
2018-11-26T05:35:11.405Z,5.20
2018-11-26T05:37:40.960Z,5.20
2018-11-26T05:40:11.860Z,5.10
2018-11-26T05:42:40.987Z,5.10
2018-11-26T05:45:16.337Z,5.20
2018-11-26T05:47:45.444Z,5.20
2018-11-26T05:50:15.614Z,5.20
2018-11-26T05:52:44.577Z,5.20
2018-11-26T05:55:15.494Z,5.40
2018-11-26T05:57:45.458Z,5.40
2018-11-26T06:00:18.657Z,5.40
2018-11-26T06:02:47.945Z,5.40
2018-11-26T06:05:16.941Z,5.40
2018-11-26T06:07:46.576Z,5.30
2018-11-26T06:10:15.864Z,5.40
2018-11-26T06:12:45.195Z,5.40
2018-11-26T06:15:14.417Z,5.30
2018-11-26T06:17:43.814Z,5.30
2018-11-26T06:20:13.605Z,5.30
2018-11-26T06:22:44.460Z,5.30
2018-11-26T06:25:15.797Z,5.20
2018-11-26T06:27:44.990Z,5.20
2018-11-26T06:30:15.024Z,5.30
2018-11-26T06:32:44.201Z,5.30
2018-11-26T06:35:20.256Z,5.30
2018-11-26T06:37:49.854Z,5.30
2018-11-26T06:40:19.252Z,5.20
2018-11-26T06:42:48.583Z,5.30
2018-11-26T06:45:21.719Z,5.20
2018-11-26T06:47:51.354Z,5.30
2018-11-26T06:50:21.232Z,5.20
2018-11-26T06:52:50.745Z,5.20
2018-11-26T06:55:20.763Z,5.20
2018-11-26T06:57:49.929Z,5.10
2018-11-26T07:00:19.995Z,5.10
2018-11-26T07:02:49.433Z,5.10
2018-11-26T07:05:21.356Z,5.10
2018-11-26T07:07:51.182Z,5.10
2018-11-26T07:10:21.202Z,5.10
2018-11-26T07:12:50.704Z,5.10
2018-11-26T07:15:21.087Z,5.10
2018-11-26T07:17:50.494Z,5.20
2018-11-26T07:20:20.219Z,5.10
2018-11-26T07:22:54.897Z,5.20
2018-11-26T07:25:29.107Z,5.10
2018-11-26T07:27:58.028Z,5.10
2018-11-26T07:30:28.680Z,5.10
2018-11-26T07:32:58.112Z,5.10
2018-11-26T07:35:27.361Z,5.10
2018-11-26T07:37:57.407Z,5.20
2018-11-26T07:40:26.681Z,5.20
2018-11-26T07:42:59.169Z,5.20
2018-11-26T07:45:29.274Z,5.20
2018-11-26T07:47:58.689Z,5.20
2018-11-26T07:50:27.600Z,5.30
2018-11-26T07:52:57.166Z,5.20
2018-11-26T07:55:26.452Z,5.30
2018-11-26T07:57:55.610Z,5.20
2018-11-26T08:00:24.988Z,5.20
2018-11-26T08:02:54.332Z,5.20
2018-11-26T08:05:23.973Z,5.20
2018-11-26T08:07:53.111Z,5.20
2018-11-26T08:10:23.217Z,5.20
2018-11-26T08:12:53.347Z,5.20
2018-11-26T08:15:24.326Z,5.20
2018-11-26T08:17:53.595Z,5.30
2018-11-26T08:20:22.687Z,5.30
2018-11-26T08:22:51.916Z,5.30
2018-11-26T08:25:21.893Z,5.30
2018-11-26T08:27:51.537Z,5.30
2018-11-26T08:30:24.536Z,5.40
2018-11-26T08:32:56.392Z,5.40
2018-11-26T08:35:25.580Z,5.40
2018-11-26T08:38:00.157Z,5.50
2018-11-26T08:40:29.954Z,5.40
2018-11-26T08:43:11.938Z,5.50
2018-11-26T08:45:47.460Z,5.50
2018-11-26T08:48:21.736Z,5.50
2018-11-26T08:50:50.700Z,5.60
2018-11-26T08:53:19.425Z,5.60
2018-11-26T08:55:48.133Z,5.60
2018-11-26T08:58:17.253Z,5.60
2018-11-26T09:00:46.337Z,5.70
2018-11-26T09:03:21.597Z,5.80
2018-11-26T09:05:55.661Z,5.70
2018-11-26T09:08:24.818Z,5.80
2018-11-26T09:10:54.030Z,5.80
2018-11-26T09:13:23.093Z,5.80
2018-11-26T09:15:52.694Z,5.80
2018-11-26T09:18:22.356Z,5.90
2018-11-26T09:20:51.830Z,5.90
2018-11-26T09:23:21.423Z,5.90
2018-11-26T09:25:51.012Z,5.90
2018-11-26T09:28:20.371Z,5.90
2018-11-26T09:30:49.967Z,5.90
2018-11-26T09:33:19.709Z,6.00
2018-11-26T09:35:48.961Z,6.00
2018-11-26T09:38:18.306Z,6.00
2018-11-26T09:40:47.676Z,6.10
2018-11-26T09:43:16.952Z,6.10
2018-11-26T09:45:46.466Z,6.20
2018-11-26T09:48:15.807Z,6.20
2018-11-26T09:50:45.009Z,6.20
2018-11-26T09:53:14.487Z,6.20
2018-11-26T09:55:43.683Z,6.20
2018-11-26T09:58:12.628Z,6.20
2018-11-26T10:00:41.950Z,6.30
2018-11-26T10:03:11.286Z,6.30
2018-11-26T10:05:40.558Z,6.30
2018-11-26T10:08:09.970Z,6.30
2018-11-26T10:10:39.173Z,6.30
2018-11-26T10:13:08.597Z,6.30
2018-11-26T10:15:37.777Z,6.30
2018-11-26T10:18:06.629Z,6.40
2018-11-26T10:20:35.701Z,6.50
2018-11-26T10:23:05.178Z,6.50
2018-11-26T10:25:34.111Z,6.50
2018-11-26T10:28:03.277Z,6.40
2018-11-26T10:30:32.259Z,6.50
2018-11-26T10:33:01.419Z,6.70
2018-11-26T10:35:30.874Z,6.70
2018-11-26T10:37:59.937Z,6.90
2018-11-26T10:40:29.091Z,7.00
2018-11-26T10:42:58.535Z,6.90
2018-11-26T10:45:27.853Z,6.80
2018-11-26T10:47:57.220Z,6.80
2018-11-26T10:50:26.965Z,6.90
2018-11-26T10:52:59.625Z,6.90
2018-11-26T10:55:30.181Z,6.90
2018-11-26T10:57:59.184Z,7.00
2018-11-26T11:00:33.261Z,7.00
2018-11-26T11:03:02.158Z,6.80
2018-11-26T11:05:31.370Z,6.80
2018-11-26T11:08:00.193Z,6.80
2018-11-26T11:10:31.533Z,6.80
2018-11-26T11:13:00.997Z,7.00
2018-11-26T11:15:30.177Z,7.10
2018-11-26T11:17:59.505Z,7.10
2018-11-26T11:20:29.949Z,7.10
2018-11-26T11:22:59.059Z,7.10
2018-11-26T11:25:28.337Z,7.20
2018-11-26T11:27:57.652Z,7.40
2018-11-26T11:30:28.355Z,7.40
2018-11-26T11:32:57.503Z,7.40
2018-11-26T11:35:26.869Z,7.30
2018-11-26T11:37:56.030Z,7.40
2018-11-26T11:40:27.904Z,7.40
2018-11-26T11:42:57.331Z,7.40
2018-11-26T11:45:26.779Z,7.40
2018-11-26T11:47:56.278Z,7.40
2018-11-26T11:50:25.915Z,7.50
2018-11-26T11:52:54.756Z,7.50
2018-11-26T11:55:25.926Z,7.30
2018-11-26T11:57:55.332Z,7.40
2018-11-26T12:00:31.766Z,7.40
2018-11-26T12:03:01.785Z,7.40
2018-11-26T12:05:31.077Z,7.40
2018-11-26T12:08:00.579Z,7.40
2018-11-26T12:10:29.795Z,7.40
2018-11-26T12:12:59.114Z,7.40
2018-11-26T12:15:28.520Z,7.30
2018-11-26T12:17:57.692Z,7.40
2018-11-26T12:20:26.757Z,7.50
2018-11-26T12:22:56.002Z,7.60
2018-11-26T12:25:25.770Z,7.60
2018-11-26T12:27:54.915Z,7.60
2018-11-26T12:30:27.466Z,7.60
2018-11-26T12:32:56.497Z,7.50
2018-11-26T12:35:25.434Z,7.50
2018-11-26T12:37:54.518Z,7.40
2018-11-26T12:40:25.888Z,7.40
2018-11-26T12:42:56.261Z,7.40
2018-11-26T12:45:27.493Z,7.40
2018-11-26T12:47:56.955Z,7.40
2018-11-26T12:50:26.572Z,7.40
2018-11-26T12:52:55.516Z,7.40
2018-11-26T12:55:25.760Z,7.50
2018-11-26T12:57:55.831Z,7.50
2018-11-26T13:00:28.104Z,7.50
2018-11-26T13:03:07.104Z,7.50
2018-11-26T13:05:36.231Z,7.50
2018-11-26T13:08:05.296Z,7.50
2018-11-26T13:10:34.564Z,7.60
2018-11-26T13:13:03.726Z,7.50
2018-11-26T13:15:33.592Z,7.60
2018-11-26T13:18:02.625Z,7.50
2018-11-26T13:20:36.193Z,7.60
2018-11-26T13:23:06.094Z,7.50
2018-11-26T13:25:41.494Z,7.50
2018-11-26T13:28:05.919Z,7.50
2018-11-26T13:30:39.248Z,7.40
2018-11-26T13:33:12.451Z,7.30
2018-11-26T13:35:42.009Z,7.40
2018-11-26T13:38:11.217Z,7.30
2018-11-26T13:40:40.145Z,7.30
2018-11-26T13:43:14.078Z,7.30
2018-11-26T13:45:45.482Z,7.40
2018-11-26T13:48:15.877Z,7.40
2018-11-26T13:50:49.547Z,7.40
2018-11-26T13:53:18.825Z,7.40
2018-11-26T13:55:48.103Z,7.50
2018-11-26T13:58:17.686Z,7.50
2018-11-26T14:00:47.131Z,7.50
2018-11-26T14:03:16.584Z,7.60
2018-11-26T14:05:45.544Z,7.60
2018-11-26T14:08:15.524Z,7.50
2018-11-26T14:10:45.036Z,7.60
2018-11-26T14:13:15.451Z,7.50
2018-11-26T14:15:44.798Z,7.50
2018-11-26T14:18:13.830Z,7.60
2018-11-26T14:20:43.167Z,7.50
2018-11-26T14:23:12.954Z,7.60
2018-11-26T14:25:41.676Z,7.60
2018-11-26T14:28:10.982Z,7.60
2018-11-26T14:30:40.369Z,7.60
2018-11-26T14:33:09.559Z,7.60
2018-11-26T14:35:38.882Z,7.60
2018-11-26T14:38:08.827Z,7.70
2018-11-26T14:40:39.915Z,7.60
2018-11-26T14:43:09.542Z,7.60
2018-11-26T14:45:38.821Z,7.60
2018-11-26T14:48:08.049Z,7.70
2018-11-26T14:50:37.568Z,7.70
2018-11-26T14:53:07.419Z,7.70
2018-11-26T14:55:38.098Z,7.60
2018-11-26T14:58:07.715Z,7.60
2018-11-26T15:00:37.030Z,7.70
2018-11-26T15:03:07.062Z,7.60
2018-11-26T15:05:36.131Z,7.60
2018-11-26T15:08:05.591Z,7.60
2018-11-26T15:10:34.814Z,7.50
2018-11-26T15:13:04.315Z,7.50
2018-11-26T15:15:33.018Z,7.50
2018-11-26T15:18:02.521Z,7.50
2018-11-26T15:20:31.406Z,7.50
2018-11-26T15:23:00.871Z,7.40
2018-11-26T15:25:30.958Z,7.40
2018-11-26T15:28:10.010Z,7.30
2018-11-26T15:30:38.861Z,7.30
2018-11-26T15:33:08.431Z,7.20
2018-11-26T15:35:37.494Z,7.20
2018-11-26T15:38:06.371Z,7.20
2018-11-26T15:40:35.106Z,7.20
2018-11-26T15:43:03.816Z,7.20
2018-11-26T15:45:32.506Z,7.20
2018-11-26T15:48:02.976Z,7.20
2018-11-26T15:50:32.162Z,7.10
2018-11-26T15:53:01.077Z,7.20
2018-11-26T15:55:30.090Z,7.20
2018-11-26T15:57:58.988Z,7.20
2018-11-26T16:00:28.045Z,7.10
2018-11-26T16:02:56.963Z,7.10
2018-11-26T16:05:28.246Z,7.10
2018-11-26T16:07:58.458Z,7.10
2018-11-26T16:10:27.499Z,7.10
2018-11-26T16:12:57.683Z,7.00
2018-11-26T16:15:28.947Z,7.00
2018-11-26T16:17:59.188Z,7.00
2018-11-26T16:20:28.325Z,7.00
2018-11-26T16:22:58.266Z,7.00
2018-11-26T16:25:27.072Z,6.90
2018-11-26T16:27:55.842Z,6.90
2018-11-26T16:30:24.960Z,6.90
2018-11-26T16:32:57.627Z,6.80
2018-11-26T16:35:29.027Z,6.90
2018-11-26T16:37:57.877Z,6.90
2018-11-26T16:40:28.911Z,6.90
2018-11-26T16:42:58.080Z,6.90
2018-11-26T16:45:28.231Z,6.80
2018-11-26T16:48:00.667Z,6.90
2018-11-26T16:50:31.801Z,6.80
2018-11-26T16:53:00.804Z,6.80
2018-11-26T16:55:29.501Z,6.80
2018-11-26T16:57:58.598Z,6.80
2018-11-26T17:00:29.240Z,6.80
2018-11-26T17:02:59.354Z,6.70
2018-11-26T17:05:34.783Z,6.70
2018-11-26T17:08:03.947Z,6.70
2018-11-26T17:10:33.064Z,6.70
2018-11-26T17:13:02.034Z,6.60
2018-11-26T17:15:30.986Z,6.70
2018-11-26T17:18:00.052Z,6.60
2018-11-26T17:20:29.167Z,6.70
2018-11-26T17:22:58.243Z,6.60
2018-11-26T17:25:27.110Z,6.60
2018-11-26T17:27:56.326Z,6.60
2018-11-26T17:30:26.623Z,6.60
2018-11-26T17:32:59.697Z,6.50
2018-11-26T17:35:29.170Z,6.60
2018-11-26T17:37:58.029Z,6.60
2018-11-26T17:40:27.434Z,6.50
2018-11-26T17:42:56.491Z,6.50
2018-11-26T17:45:26.262Z,6.50
2018-11-26T17:47:59.763Z,6.50
2018-11-26T17:50:32.121Z,6.40
2018-11-26T17:53:01.094Z,6.40
2018-11-26T17:55:29.805Z,6.40
2018-11-26T17:57:59.070Z,6.40
2018-11-26T18:00:30.942Z,6.40
2018-11-26T18:02:59.670Z,6.40
2018-11-26T18:05:30.294Z,6.40
2018-11-26T18:08:05.112Z,6.30
2018-11-26T18:10:33.918Z,6.30
2018-11-26T18:13:02.668Z,6.30
2018-11-26T18:15:31.696Z,6.20
2018-11-26T18:18:00.522Z,6.20
2018-11-26T18:20:29.283Z,6.20
2018-11-26T18:22:58.347Z,6.10
2018-11-26T18:25:27.057Z,6.00
2018-11-26T18:27:58.784Z,6.00
2018-11-26T18:30:36.542Z,5.90
2018-11-26T18:33:05.642Z,5.70
2018-11-26T18:35:34.374Z,5.70
2018-11-26T18:38:03.086Z,5.60
2018-11-26T18:40:32.204Z,5.40
2018-11-26T18:43:01.127Z,5.30
2018-11-26T18:45:29.831Z,5.20
2018-11-26T18:47:58.522Z,5.10
2018-11-26T18:50:27.467Z,4.90
2018-11-26T18:52:56.331Z,4.80
2018-11-26T18:55:25.411Z,4.60
2018-11-26T18:57:54.606Z,4.40
2018-11-26T19:00:26.955Z,4.50
2018-11-26T19:02:56.774Z,4.30
2018-11-26T19:05:25.905Z,4.40
2018-11-26T19:07:54.847Z,4.40
2018-11-26T19:10:27.086Z,4.40
2018-11-26T19:13:13.264Z,4.30
2018-11-26T19:15:43.903Z,4.00
2018-11-26T19:18:16.350Z,4.00
2018-11-26T19:20:45.122Z,4.00
2018-11-26T19:23:14.781Z,4.00
2018-11-26T19:25:43.939Z,3.80
2018-11-26T19:28:12.599Z,3.90
2018-11-26T19:30:41.799Z,3.90
2018-11-26T19:33:11.155Z,3.80
2018-11-26T19:35:39.959Z,3.80
2018-11-26T19:38:09.033Z,3.70
2018-11-26T19:40:39.862Z,3.60
2018-11-26T19:43:09.310Z,3.50
2018-11-26T19:45:38.603Z,3.50
2018-11-26T19:48:08.150Z,3.40
2018-11-26T19:50:37.206Z,3.30
2018-11-26T19:53:08.070Z,3.20
2018-11-26T19:55:37.012Z,3.20
2018-11-26T19:58:07.381Z,3.00
2018-11-26T20:00:36.576Z,3.10
2018-11-26T20:03:15.782Z,3.00
2018-11-26T20:06:20.579Z,2.90
2018-11-26T20:08:52.019Z,2.80
2018-11-26T20:11:21.486Z,2.90
2018-11-26T20:13:50.116Z,2.90
2018-11-26T20:16:21.643Z,2.90
2018-11-26T20:18:51.063Z,2.70
2018-11-26T20:21:20.511Z,2.50
2018-11-26T20:23:49.264Z,2.50
2018-11-26T20:26:18.403Z,2.60
2018-11-26T20:28:47.491Z,2.60
2018-11-26T20:31:16.349Z,2.60
2018-11-26T20:33:45.343Z,2.50
2018-11-26T20:36:15.162Z,2.40
2018-11-26T20:38:44.123Z,2.60
2018-11-26T20:41:13.782Z,2.50
2018-11-26T20:43:42.537Z,2.60
2018-11-26T20:46:11.349Z,2.50
2018-11-26T20:48:40.897Z,2.40
2018-11-26T20:51:09.634Z,2.40
2018-11-26T20:53:39.422Z,2.40
2018-11-26T20:56:15.987Z,2.40
2018-11-26T20:58:45.197Z,2.50
2018-11-26T21:01:14.171Z,2.40
2018-11-26T21:03:43.662Z,2.30
2018-11-26T21:06:12.376Z,2.20
2018-11-26T21:08:41.103Z,2.10
2018-11-26T21:11:09.930Z,2.00
2018-11-26T21:13:39.096Z,1.80
2018-11-26T21:16:07.934Z,1.90
2018-11-26T21:18:36.639Z,1.70
2018-11-26T21:21:06.570Z,1.70
2018-11-26T21:23:35.492Z,1.70
2018-11-26T21:26:06.104Z,1.70
2018-11-26T21:28:34.750Z,1.60
2018-11-26T21:31:03.571Z,1.40
2018-11-26T21:33:32.672Z,1.50
2018-11-26T21:36:01.443Z,1.50
2018-11-26T21:38:30.224Z,1.60
2018-11-26T21:41:00.173Z,1.50
2018-11-26T21:43:28.056Z,1.40
2018-11-26T21:45:59.472Z,1.40
2018-11-26T21:48:28.556Z,1.40
2018-11-26T21:50:57.862Z,1.30
2018-11-26T21:53:26.971Z,1.20
2018-11-26T21:55:55.640Z,1.30
2018-11-26T21:58:24.761Z,1.30
2018-11-26T22:00:55.353Z,1.20
2018-11-26T22:03:24.191Z,1.10
2018-11-26T22:05:52.930Z,1.10
2018-11-26T22:08:21.846Z,1.20
2018-11-26T22:10:50.999Z,1.00
2018-11-26T22:13:21.211Z,1.10
2018-11-26T22:15:50.427Z,1.20
2018-11-26T22:18:19.615Z,1.30
2018-11-26T22:20:48.351Z,1.30
2018-11-26T22:23:17.319Z,1.20
2018-11-26T22:25:46.101Z,1.10
2018-11-26T22:28:15.038Z,1.10
2018-11-26T22:30:43.783Z,1.10
2018-11-26T22:33:12.500Z,1.20
2018-11-26T22:35:41.730Z,1.20
2018-11-26T22:38:10.469Z,1.40
2018-11-26T22:40:39.445Z,1.40
2018-11-26T22:43:08.849Z,1.40
2018-11-26T22:45:37.899Z,1.60
2018-11-26T22:48:11.188Z,1.60
2018-11-26T22:50:42.006Z,1.70
2018-11-26T22:53:11.314Z,1.90
2018-11-26T22:55:40.146Z,2.00
2018-11-26T22:58:12.723Z,2.10
2018-11-26T23:00:52.829Z,2.00
2018-11-26T23:03:25.091Z,2.00
2018-11-26T23:05:54.017Z,2.10
2018-11-26T23:08:22.877Z,2.00
2018-11-26T23:10:51.837Z,2.00
2018-11-26T23:13:21.086Z,2.30
2018-11-26T23:15:50.024Z,2.60
2018-11-26T23:18:18.926Z,2.80
2018-11-26T23:20:48.166Z,2.80
2018-11-26T23:23:17.285Z,2.80
2018-11-26T23:25:46.164Z,2.80
2018-11-26T23:28:15.904Z,2.80
2018-11-26T23:30:44.951Z,2.80
2018-11-26T23:33:13.919Z,2.70
2018-11-26T23:35:43.116Z,2.70
2018-11-26T23:38:12.482Z,2.90
2018-11-26T23:40:41.487Z,3.00
2018-11-26T23:43:10.226Z,3.00
2018-11-26T23:45:39.241Z,2.90
2018-11-26T23:48:08.504Z,3.00
2018-11-26T23:50:37.820Z,3.10
2018-11-26T23:53:07.381Z,3.10
2018-11-26T23:55:36.164Z,3.10
2018-11-26T23:58:05.088Z,3.10
